Time;durP1;ratioP1;P1;durP2;ratioP2;P2;SDS_P1;SDS_P2;PMS_P1;PMS_P2;Temp;Humidity;BMP_temperature;BMP_pressure;BME280_temperature;BME280_humidity;BME280_pressure;Samples;Min_cycle;Max_cycle;Signal;HPM_P1;HPM_P2
2023/12/08 00:00:40;;;;;;;20.90;16.13;;;;;;;2.48;100.00;101542.69;6157874;28;20241;-77
2023/12/08 00:04:02;;;;;;;19.27;15.93;;;;;;;2.34;100.00;101542.41;6167778;28;20234;-77
2023/12/08 00:07:23;;;;;;;19.13;16.50;;;;;;;2.24;100.00;101533.09;6166234;28;20218;-78
2023/12/08 00:10:45;;;;;;;19.43;14.37;;;;;;;2.21;100.00;101520.81;6172498;28;20241;-78
2023/12/08 00:14:06;;;;;;;14.43;12.87;;;;;;;2.06;100.00;101528.59;6164031;28;20245;-79
2023/12/08 00:17:27;;;;;;;17.37;13.93;;;;;;;2.03;100.00;101526.06;6164378;28;20237;-78
2023/12/08 00:20:49;;;;;;;19.30;15.00;;;;;;;1.99;100.00;101520.03;6176006;28;20489;-79
2023/12/08 00:24:11;;;;;;;18.40;14.50;;;;;;;1.87;100.00;101517.03;6162104;28;20237;-77
2023/12/08 00:27:32;;;;;;;19.73;13.53;;;;;;;1.78;100.00;101512.09;6162174;28;20347;-78
2023/12/08 00:30:53;;;;;;;20.10;16.37;;;;;;;1.83;100.00;101503.03;6173715;28;20246;-77
2023/12/08 00:34:14;;;;;;;16.93;14.87;;;;;;;1.78;100.00;101489.03;6174508;28;20249;-78
2023/12/08 00:37:36;;;;;;;16.90;13.70;;;;;;;1.75;100.00;101477.69;6173131;28;20234;-78
2023/12/08 00:40:58;;;;;;;19.50;14.93;;;;;;;1.73;100.00;101472.47;6164325;28;20267;-79
2023/12/08 00:44:19;;;;;;;16.83;13.37;;;;;;;1.70;100.00;101467.25;6163433;28;20246;-79
2023/12/08 00:47:40;;;;;;;17.37;15.07;;;;;;;1.67;100.00;101472.69;6163758;28;20237;-79
2023/12/08 00:51:01;;;;;;;18.23;14.73;;;;;;;1.66;100.00;101470.09;6173207;28;20234;-79
2023/12/08 00:54:23;;;;;;;14.87;12.90;;;;;;;1.71;100.00;101465.47;6160181;28;20234;-79
2023/12/08 00:57:44;;;;;;;17.30;13.63;;;;;;;1.61;100.00;101462.31;6174476;28;20226;-78
2023/12/08 01:01:06;;;;;;;16.73;13.83;;;;;;;1.63;100.00;101458.69;6164660;28;20242;-77
2023/12/08 01:04:27;;;;;;;18.10;13.63;;;;;;;1.63;100.00;101456.97;6161416;28;20219;-78
2023/12/08 01:07:48;;;;;;;16.63;12.30;;;;;;;1.61;100.00;101459.66;6173815;28;20261;-78
2023/12/08 01:11:10;;;;;;;15.40;13.60;;;;;;;1.56;100.00;101459.03;6176770;28;20242;-78
2023/12/08 01:14:31;;;;;;;16.23;13.27;;;;;;;1.45;100.00;101448.84;6175918;28;20229;-77
2023/12/08 01:17:52;;;;;;;17.27;12.27;;;;;;;1.48;100.00;101447.84;6173220;28;20241;-78
2023/12/08 01:21:13;;;;;;;26.27;15.83;;;;;;;1.43;100.00;101439.22;6175987;28;20238;-78
2023/12/08 01:24:34;;;;;;;16.07;12.90;;;;;;;1.48;100.00;101427.44;6175457;28;20619;-78
2023/12/08 01:27:57;;;;;;;17.50;12.77;;;;;;;1.42;100.00;101432.16;6171763;28;20238;-78
2023/12/08 01:31:18;;;;;;;19.33;14.40;;;;;;;1.43;100.00;101440.09;6169216;28;20246;-78
2023/12/08 01:34:39;;;;;;;15.97;11.67;;;;;;;1.36;100.00;101421.78;6175211;28;20238;-78
2023/12/08 01:38:00;;;;;;;14.13;11.33;;;;;;;1.37;100.00;101416.44;6164447;28;20305;-78
2023/12/08 01:41:21;;;;;;;15.40;11.40;;;;;;;1.36;100.00;101411.16;6154547;28;20230;-78
2023/12/08 01:44:44;;;;;;;14.57;12.03;;;;;;;1.37;100.00;101407.59;6172875;28;20250;-78
2023/12/08 01:48:05;;;;;;;14.30;11.90;;;;;;;1.28;100.00;101398.22;6163746;28;20312;-79
2023/12/08 01:51:28;;;;;;;12.20;10.90;;;;;;;1.19;100.00;101403.91;6164411;28;20242;-79
2023/12/08 01:54:50;;;;;;;16.67;12.13;;;;;;;1.22;100.00;101401.16;6174396;28;20233;-79
2023/12/08 01:58:11;;;;;;;16.90;15.17;;;;;;;1.22;100.00;101403.81;6161556;28;20234;-80
2023/12/08 02:01:34;;;;;;;15.43;12.27;;;;;;;1.29;100.00;101389.34;6161573;28;20225;-78
2023/12/08 02:04:57;;;;;;;15.93;13.17;;;;;;;1.26;100.00;101392.13;6165256;28;20234;-79
2023/12/08 02:08:19;;;;;;;18.57;16.67;;;;;;;1.25;100.00;101373.59;6159229;28;20784;-79
2023/12/08 02:11:40;;;;;;;12.63;11.20;;;;;;;1.17;100.00;101355.34;6157269;28;20605;-79
2023/12/08 02:15:01;;;;;;;16.73;14.37;;;;;;;1.18;100.00;101341.16;6160347;28;20225;-79
2023/12/08 02:18:25;;;;;;;17.30;14.40;;;;;;;1.22;100.00;101336.56;6171256;28;20234;-80
2023/12/08 02:21:47;;;;;;;18.80;12.67;;;;;;;1.18;100.00;101322.56;6168460;28;20234;-79
2023/12/08 02:25:09;;;;;;;13.37;11.67;;;;;;;1.16;100.00;101320.91;6154613;28;20550;-80
2023/12/08 02:28:30;;;;;;;16.97;14.23;;;;;;;1.15;100.00;101312.06;6171457;28;20233;-79
2023/12/08 02:31:58;;;;;;;13.87;12.40;;;;;;;1.06;100.00;101309.81;6156548;28;20235;-80
2023/12/08 02:35:21;;;;;;;12.83;10.67;;;;;;;1.16;100.00;101310.28;6166102;28;20238;-79
2023/12/08 02:38:43;;;;;;;14.73;12.57;;;;;;;1.19;100.00;101312.81;6163870;28;20233;-80
2023/12/08 02:42:06;;;;;;;18.93;13.17;;;;;;;1.18;100.00;101308.41;6174479;28;20328;-78
2023/12/08 02:45:27;;;;;;;19.13;13.87;;;;;;;1.18;100.00;101308.41;6163253;28;20246;-79
2023/12/08 02:48:48;;;;;;;14.60;12.13;;;;;;;1.09;100.00;101300.84;6159094;28;20698;-80
2023/12/08 02:52:09;;;;;;;12.80;11.00;;;;;;;1.13;100.00;101294.47;6162167;28;20233;-79
2023/12/08 02:55:30;;;;;;;16.23;12.67;;;;;;;1.03;100.00;101286.06;6145824;28;20230;-79
2023/12/08 02:58:52;;;;;;;13.43;11.87;;;;;;;1.06;100.00;101288.59;6167301;28;20237;-79
2023/12/08 03:02:13;;;;;;;12.97;10.00;;;;;;;1.04;100.00;101285.13;6171128;28;20496;-78
2023/12/08 03:05:34;;;;;;;15.53;11.47;;;;;;;1.00;100.00;101275.56;6161046;28;20226;-80
2023/12/08 03:08:56;;;;;;;18.63;13.03;;;;;;;0.96;100.00;101275.78;6172880;28;20336;-79
2023/12/08 03:12:16;;;;;;;16.40;11.87;;;;;;;0.97;100.00;101270.41;6157557;28;20230;-78
2023/12/08 03:15:39;;;;;;;13.33;11.20;;;;;;;0.97;100.00;101264.22;6172787;28;20580;-78
2023/12/08 03:19:00;;;;;;;17.40;11.50;;;;;;;0.96;100.00;101258.03;6174271;28;20234;-79
2023/12/08 03:22:21;;;;;;;11.70;10.40;;;;;;;0.96;100.00;101258.03;6162933;28;20953;-79
2023/12/08 03:25:42;;;;;;;17.73;13.37;;;;;;;0.97;100.00;101251.81;6174151;28;20838;-79
2023/12/08 03:29:03;;;;;;;12.90;11.60;;;;;;;0.92;100.00;101253.78;6169859;28;20325;-78
2023/12/08 03:32:25;;;;;;;18.77;10.97;;;;;;;0.96;100.00;101262.50;6172701;28;20321;-79
2023/12/08 03:35:46;;;;;;;14.00;11.23;;;;;;;1.00;100.00;101261.44;6173045;28;20223;-78
2023/12/08 03:39:07;;;;;;;13.73;10.07;;;;;;;1.02;100.00;101257.81;6158192;28;20234;-80
2023/12/08 03:42:31;;;;;;;12.90;10.63;;;;;;;1.10;100.00;101252.16;6164418;28;20673;-78
2023/12/08 03:45:52;;;;;;;17.63;13.30;;;;;;;1.12;100.00;101240.53;6168423;28;20253;-78
2023/12/08 03:49:15;;;;;;;14.80;11.23;;;;;;;1.08;100.00;101225.69;6182728;28;20226;-78
2023/12/08 03:52:35;;;;;;;12.63;9.77;;;;;;;1.07;100.00;101215.09;6170468;28;20241;-79
2023/12/08 03:55:56;;;;;;;16.00;12.40;;;;;;;1.12;100.00;101206.03;6168735;28;20260;-78
2023/12/08 03:59:17;;;;;;;13.37;9.60;;;;;;;1.19;100.00;101210.13;6174990;28;20249;-79
2023/12/08 04:02:38;;;;;;;13.37;10.97;;;;;;;1.17;100.00;101219.09;6175147;28;20214;-79
2023/12/08 04:06:01;;;;;;;11.57;10.30;;;;;;;1.23;100.00;101214.34;6170934;28;20233;-79
2023/12/08 04:09:22;;;;;;;12.03;10.67;;;;;;;1.21;100.00;101226.84;6175752;28;20316;-78
2023/12/08 04:12:43;;;;;;;13.60;10.53;;;;;;;1.22;100.00;101225.06;6177763;28;21840;-78
2023/12/08 04:16:05;;;;;;;10.13;8.67;;;;;;;1.27;100.00;101234.53;6178483;28;20226;-77
2023/12/08 04:19:25;;;;;;;13.60;9.13;;;;;;;1.27;100.00;101223.91;6177597;28;20226;-77
2023/12/08 04:22:48;;;;;;;11.57;9.97;;;;;;;1.34;100.00;101213.88;6175565;28;20230;-80
2023/12/08 04:26:09;;;;;;;11.20;8.03;;;;;;;1.31;100.00;101206.94;6176146;28;20226;-79
2023/12/08 04:29:29;;;;;;;11.63;9.57;;;;;;;1.26;100.00;101223.97;6165353;28;20610;-78
2023/12/08 04:32:50;;;;;;;11.37;10.00;;;;;;;1.18;100.00;101232.28;6175235;28;20237;-78
2023/12/08 04:36:11;;;;;;;10.00;8.80;;;;;;;1.24;100.00;101234.69;6164084;28;20226;-79
2023/12/08 04:39:34;;;;;;;10.73;9.33;;;;;;;1.33;100.00;101217.47;6165126;28;20230;-79
2023/12/08 04:42:55;;;;;;;8.50;7.60;;;;;;;1.24;100.00;101213.44;6178845;28;20233;-84
2023/12/08 04:46:17;;;;;;;10.10;8.30;;;;;;;1.26;100.00;101187.69;6165092;28;20512;-80
2023/12/08 04:49:38;;;;;;;11.07;8.87;;;;;;;1.36;100.00;101191.63;6173252;28;20237;-79
2023/12/08 04:53:00;;;;;;;10.83;7.93;;;;;;;1.36;100.00;101173.03;6162246;28;20246;-79
2023/12/08 04:56:22;;;;;;;9.73;7.23;;;;;;;1.39;100.00;101183.53;6151722;28;20234;-79
2023/12/08 04:59:43;;;;;;;11.93;9.07;;;;;;;1.38;100.00;101173.81;6174964;28;21200;-79
2023/12/08 05:03:04;;;;;;;12.10;9.13;;;;;;;1.41;100.00;101160.44;6165196;28;20233;-78
2023/12/08 05:06:26;;;;;;;12.43;8.43;;;;;;;1.42;100.00;101172.75;6164956;28;20238;-79
2023/12/08 05:09:47;;;;;;;10.00;8.17;;;;;;;1.37;100.00;101177.44;6176404;28;20915;-80
2023/12/08 05:13:09;;;;;;;11.23;9.60;;;;;;;1.35;100.00;101163.38;6172096;28;20245;-81
2023/12/08 05:16:30;;;;;;;12.00;10.50;;;;;;;1.37;100.00;101153.53;6164287;28;20767;-79
2023/12/08 05:19:51;;;;;;;11.53;8.77;;;;;;;1.41;100.00;101159.56;6175175;28;20341;-78
2023/12/08 05:23:12;;;;;;;11.87;8.27;;;;;;;1.39;100.00;101161.41;6161712;28;20245;-79
2023/12/08 05:26:33;;;;;;;9.67;8.70;;;;;;;1.32;100.00;101159.97;6169568;28;20600;-78
2023/12/08 05:29:55;;;;;;;9.53;8.33;;;;;;;1.28;100.00;101147.78;6155283;28;20238;-78
2023/12/08 05:33:16;;;;;;;15.20;9.27;;;;;;;1.23;100.00;101152.44;6177739;28;20238;-78
2023/12/08 05:36:37;;;;;;;10.83;9.37;;;;;;;1.28;100.00;101163.69;6162401;28;20253;-79
2023/12/08 05:39:58;;;;;;;11.83;9.23;;;;;;;1.28;100.00;101153.94;6169692;28;20233;-79
2023/12/08 05:43:19;;;;;;;12.67;8.63;;;;;;;1.33;100.00;101170.53;6167492;28;20230;-77
2023/12/08 05:46:41;;;;;;;10.50;8.67;;;;;;;1.17;100.00;101161.53;6175225;28;20222;-79
2023/12/08 05:50:04;;;;;;;11.43;8.60;;;;;;;1.35;100.00;101170.47;6175758;28;20221;-78
2023/12/08 05:53:25;;;;;;;11.97;9.17;;;;;;;1.28;100.00;101155.72;6174597;28;20237;-79
2023/12/08 05:56:49;;;;;;;11.93;9.03;;;;;;;1.18;100.00;101170.38;6174779;28;20241;-79
2023/12/08 06:00:11;;;;;;;13.37;10.30;;;;;;;1.36;100.00;101174.81;6164470;28;20226;-79
2023/12/08 06:03:36;;;;;;;11.13;9.33;;;;;;;1.37;100.00;101161.50;6150498;28;20668;-79
2023/12/08 06:06:56;;;;;;;12.97;10.20;;;;;;;1.30;100.00;101157.41;6174782;28;20356;-78
2023/12/08 06:10:17;;;;;;;13.73;11.53;;;;;;;1.33;100.00;101157.28;6168736;28;20233;-79
2023/12/08 06:13:38;;;;;;;17.90;11.60;;;;;;;1.15;100.00;101146.63;6157289;28;21699;-79
2023/12/08 06:16:59;;;;;;;14.07;10.43;;;;;;;1.19;100.00;101151.72;6160401;28;20228;-79
2023/12/08 06:20:22;;;;;;;16.27;10.53;;;;;;;1.17;100.00;101163.34;6163227;28;20840;-79
2023/12/08 06:23:43;;;;;;;15.10;10.83;;;;;;;1.21;100.00;101163.13;6175022;28;20775;-79
2023/12/08 06:27:05;;;;;;;14.43;12.93;;;;;;;1.23;100.00;101160.41;6175369;28;20238;-78
2023/12/08 06:30:25;;;;;;;13.80;11.57;;;;;;;1.16;100.00;101156.31;6162939;28;20222;-81
2023/12/08 06:33:47;;;;;;;14.37;12.13;;;;;;;1.23;100.00;101158.59;6160326;28;20319;-80
2023/12/08 06:37:09;;;;;;;15.40;13.37;;;;;;;1.13;100.00;101156.44;6174232;28;20226;-78
2023/12/08 06:40:29;;;;;;;15.80;12.07;;;;;;;1.25;100.00;101150.59;6168542;28;20226;-79
2023/12/08 06:43:50;;;;;;;14.67;12.00;;;;;;;1.26;100.00;101147.84;6157358;28;21055;-76
2023/12/08 06:47:11;;;;;;;15.13;13.03;;;;;;;1.27;100.00;101157.53;6164109;28;20226;-76
2023/12/08 06:50:33;;;;;;;14.63;11.40;;;;;;;1.30;100.00;101141.47;6164788;28;20230;-80
2023/12/08 06:53:55;;;;;;;17.33;15.20;;;;;;;1.37;100.00;101136.72;6164394;28;20238;-81
2023/12/08 06:57:17;;;;;;;18.73;13.10;;;;;;;1.41;100.00;101122.38;6158131;28;20596;-81
2023/12/08 07:00:38;;;;;;;16.57;12.80;;;;;;;1.46;100.00;101109.75;6151349;28;20856;-81
2023/12/08 07:03:59;;;;;;;19.93;13.97;;;;;;;1.44;100.00;101095.69;6156064;28;20995;-79
2023/12/08 07:07:21;;;;;;;20.53;16.07;;;;;;;1.41;100.00;101098.47;6165439;28;20312;-78
2023/12/08 07:10:46;;;;;;;15.33;12.90;;;;;;;1.42;100.00;101106.34;6164720;28;20233;-83
2023/12/08 07:14:07;;;;;;;15.73;12.73;;;;;;;1.50;100.00;101098.88;6172350;28;20621;-78
2023/12/08 07:17:27;;;;;;;16.20;13.47;;;;;;;1.52;100.00;101104.16;6165205;28;20248;-82
2023/12/08 07:20:50;;;;;;;16.67;14.23;;;;;;;1.44;100.00;101104.50;6163150;28;20541;-78
2023/12/08 07:24:11;;;;;;;19.47;15.50;;;;;;;1.49;100.00;101113.13;6147315;28;20249;-78
2023/12/08 07:27:33;;;;;;;14.77;11.80;;;;;;;1.56;100.00;101125.16;6166046;28;20721;-78
2023/12/08 07:30:54;;;;;;;16.40;12.63;;;;;;;1.59;100.00;101124.16;6174572;28;20225;-78
2023/12/08 07:34:15;;;;;;;15.77;13.23;;;;;;;1.49;100.00;101126.41;6159214;28;20317;-78
2023/12/08 07:37:39;;;;;;;19.30;14.60;;;;;;;1.52;100.00;101126.22;6166912;28;20238;-77
2023/12/08 07:41:00;;;;;;;16.67;12.53;;;;;;;1.63;100.00;101121.28;6171727;28;20229;-76
2023/12/08 07:44:22;;;;;;;15.53;12.67;;;;;;;1.61;100.00;101119.63;6156344;28;20548;-74
2023/12/08 07:47:43;;;;;;;15.27;11.13;;;;;;;1.53;100.00;101132.41;6168983;28;20264;-75
2023/12/08 07:51:05;;;;;;;20.80;16.03;;;;;;;1.59;100.00;101117.03;6170584;28;20312;-79
2023/12/08 07:54:26;;;;;;;15.57;12.07;;;;;;;1.56;100.00;101103.91;6174064;28;20620;-80
2023/12/08 07:57:47;;;;;;;15.97;12.93;;;;;;;1.65;100.00;101105.25;6156139;28;20225;-80
2023/12/08 08:01:09;;;;;;;15.20;12.57;;;;;;;1.53;100.00;101101.41;6171026;28;20286;-75
2023/12/08 08:04:30;;;;;;;17.60;14.97;;;;;;;1.58;100.00;101106.50;6161515;28;20245;-77
2023/12/08 08:07:51;;;;;;;15.23;12.10;;;;;;;1.59;100.00;101111.72;6170316;28;20237;-79
2023/12/08 08:11:12;;;;;;;16.73;13.63;;;;;;;1.62;100.00;101118.69;6164079;28;20226;-80
2023/12/08 08:14:34;;;;;;;16.17;13.17;;;;;;;1.65;100.00;101105.25;6168405;28;20514;-75
2023/12/08 08:17:56;;;;;;;17.10;11.40;;;;;;;1.74;100.00;101099.50;6177447;28;20234;-78
2023/12/08 08:21:17;;;;;;;16.37;13.10;;;;;;;1.70;100.00;101089.97;6175102;28;20214;-80
2023/12/08 08:24:38;;;;;;;18.53;13.93;;;;;;;1.75;100.00;101093.25;6174375;28;20257;-75
2023/12/08 08:28:00;;;;;;;15.70;12.07;;;;;;;1.64;100.00;101098.22;6142201;28;20611;-74
2023/12/08 08:31:21;;;;;;;15.73;13.03;;;;;;;1.71;100.00;101088.16;6181188;28;20222;-82
2023/12/08 08:34:43;;;;;;;21.03;15.13;;;;;;;1.79;100.00;101080.69;6172702;28;20328;-78
2023/12/08 08:38:14;;;;;;;15.70;12.80;;;;;;;1.88;100.00;101075.75;6172192;28;20222;-82
2023/12/08 08:41:35;;;;;;;18.17;13.27;;;;;;;1.85;100.00;101077.72;6183689;28;20317;-80
2023/12/08 08:44:56;;;;;;;16.40;12.20;;;;;;;1.81;100.00;101078.81;6185756;28;20230;-77
2023/12/08 08:48:17;;;;;;;15.70;13.60;;;;;;;1.97;100.00;101080.63;6180834;28;20238;-78
2023/12/08 08:51:40;;;;;;;16.40;12.63;;;;;;;1.93;100.00;101075.53;6173258;28;20321;-73
2023/12/08 08:55:02;;;;;;;16.47;14.03;;;;;;;1.91;100.00;101082.72;6170622;28;20245;-74
2023/12/08 08:58:23;;;;;;;17.00;14.53;;;;;;;1.79;100.00;101086.00;6177815;28;20222;-74
2023/12/08 09:01:44;;;;;;;18.70;13.10;;;;;;;1.77;100.00;101088.72;6174828;28;20245;-79
2023/12/08 09:05:06;;;;;;;16.93;14.10;;;;;;;1.86;100.00;101082.06;6165404;28;20326;-80
2023/12/08 09:08:28;;;;;;;15.33;13.00;;;;;;;1.87;100.00;101075.84;6167585;28;20229;-79
2023/12/08 09:11:49;;;;;;;18.07;16.10;;;;;;;1.88;100.00;101067.78;6168486;28;20600;-79
2023/12/08 09:15:11;;;;;;;15.90;12.80;;;;;;;1.91;100.00;101083.59;6182763;28;20238;-78
2023/12/08 09:18:33;;;;;;;15.80;12.83;;;;;;;1.86;100.00;101077.63;6164235;28;20246;-77
2023/12/08 09:21:54;;;;;;;17.57;14.60;;;;;;;1.88;100.00;101072.25;6173594;28;20851;-78
2023/12/08 09:25:16;;;;;;;17.07;14.27;;;;;;;1.96;100.00;101070.91;6177394;28;20230;-76
2023/12/08 09:28:37;;;;;;;15.17;13.60;;;;;;;1.99;100.00;101070.78;6180893;28;20798;-77
2023/12/08 09:31:58;;;;;;;16.13;14.00;;;;;;;1.90;100.00;101071.22;6173274;28;20233;-77
2023/12/08 09:35:19;;;;;;;15.57;12.33;;;;;;;1.98;100.00;101070.84;6179684;28;20611;-77
2023/12/08 09:38:40;;;;;;;16.60;13.83;;;;;;;1.87;100.00;101073.19;6175717;28;20241;-76
2023/12/08 09:42:07;;;;;;;19.00;14.17;;;;;;;1.76;100.00;101071.06;6181782;28;20238;-76
2023/12/08 09:45:29;;;;;;;18.13;13.57;;;;;;;2.08;100.00;101064.13;6171260;28;20311;-77
2023/12/08 09:48:58;;;;;;;19.90;16.33;;;;;;;2.11;100.00;101064.81;6173785;28;20226;-77
2023/12/08 09:52:21;;;;;;;17.03;12.10;;;;;;;2.05;100.00;101048.31;6174720;28;20245;-77
2023/12/08 09:55:43;;;;;;;21.53;15.67;;;;;;;1.92;100.00;101039.28;6170908;28;20238;-77
2023/12/08 09:59:06;;;;;;;14.40;12.33;;;;;;;1.91;100.00;101025.13;6172632;28;20225;-77
2023/12/08 10:02:28;;;;;;;14.60;12.87;;;;;;;2.05;100.00;101021.72;6160441;28;20544;-77
2023/12/08 10:05:51;;;;;;;14.30;11.93;;;;;;;2.11;100.00;101016.09;6159197;28;20612;-77
2023/12/08 10:09:13;;;;;;;16.77;13.13;;;;;;;2.14;100.00;100997.34;6171678;28;20265;-77
2023/12/08 10:12:34;;;;;;;21.03;13.80;;;;;;;2.27;100.00;100977.16;6163777;28;20222;-77
2023/12/08 10:15:57;;;;;;;16.37;13.40;;;;;;;2.23;100.00;100989.72;6177647;28;20706;-77
2023/12/08 10:19:21;;;;;;;14.83;10.87;;;;;;;2.27;100.00;101004.59;6178207;28;20295;-77
2023/12/08 10:22:47;;;;;;;18.07;13.77;;;;;;;2.35;100.00;101002.41;6176981;28;20230;-77
2023/12/08 10:26:09;;;;;;;14.97;12.73;;;;;;;2.19;100.00;101006.78;6183850;28;20230;-77
2023/12/08 10:29:31;;;;;;;12.40;11.10;;;;;;;2.18;100.00;101009.53;6174013;28;20627;-78
2023/12/08 10:32:53;;;;;;;15.27;13.53;;;;;;;2.26;100.00;101012.66;6154295;28;20499;-77
2023/12/08 10:36:14;;;;;;;14.87;11.97;;;;;;;2.23;100.00;101004.84;6167023;28;20336;-77
2023/12/08 10:39:35;;;;;;;13.77;11.60;;;;;;;2.07;100.00;101012.75;6177195;28;20308;-77
2023/12/08 10:42:57;;;;;;;16.60;12.40;;;;;;;2.09;100.00;101007.34;6176574;28;20230;-77
2023/12/08 10:46:18;;;;;;;14.30;12.30;;;;;;;2.06;100.00;100997.75;6157882;28;20230;-78
2023/12/08 10:49:40;;;;;;;13.30;10.63;;;;;;;2.07;100.00;100995.94;6178610;28;20616;-78
2023/12/08 10:53:03;;;;;;;18.20;16.27;;;;;;;2.19;100.00;100990.84;6168814;28;20234;-77
2023/12/08 10:56:24;;;;;;;15.50;11.97;;;;;;;2.07;100.00;100994.13;6169990;28;20249;-77
2023/12/08 10:59:50;;;;;;;13.10;11.23;;;;;;;2.01;100.00;100998.91;6178458;28;20238;-76
2023/12/08 11:03:15;;;;;;;14.03;10.40;;;;;;;2.07;100.00;100991.47;6165991;28;20233;-76
2023/12/08 11:06:44;;;;;;;16.53;12.67;;;;;;;1.89;100.00;101007.53;6172066;28;20226;-78
2023/12/08 11:10:07;;;;;;;14.60;13.10;;;;;;;1.82;100.00;100992.81;6150681;28;20233;-78
2023/12/08 11:13:30;;;;;;;13.33;11.83;;;;;;;1.98;100.00;100999.91;6167325;28;20234;-78
2023/12/08 11:17:00;;;;;;;18.30;12.83;;;;;;;1.99;100.00;101004.31;6170306;28;20269;-81
2023/12/08 11:20:21;;;;;;;15.47;11.57;;;;;;;1.91;100.00;100985.25;6175131;28;20230;-71
2023/12/08 11:23:45;;;;;;;14.80;11.63;;;;;;;1.89;100.00;100992.44;6174182;28;20237;-76
2023/12/08 11:27:12;;;;;;;15.73;12.63;;;;;;;1.91;100.00;100982.59;6173957;28;20229;-73
2023/12/08 11:30:43;;;;;;;15.70;13.23;;;;;;;1.97;100.00;100986.72;6169241;28;20312;-74
2023/12/08 11:34:11;;;;;;;14.13;12.20;;;;;;;2.16;100.00;100987.50;6170559;28;20233;-73
2023/12/08 11:37:33;;;;;;;14.10;12.50;;;;;;;2.00;100.00;100994.56;6144087;28;20622;-79
2023/12/08 11:40:57;;;;;;;13.00;10.00;;;;;;;1.86;100.00;100978.44;6157635;28;20269;-81
2023/12/08 11:44:19;;;;;;;16.23;11.43;;;;;;;1.71;100.00;100972.09;6174137;28;20233;-79
2023/12/08 11:47:42;;;;;;;17.20;15.27;;;;;;;1.76;100.00;100963.91;6171304;28;20363;-74
2023/12/08 11:51:05;;;;;;;15.07;11.43;;;;;;;1.77;100.00;100952.34;6172220;28;20230;-76
2023/12/08 11:54:26;;;;;;;18.93;14.20;;;;;;;1.77;100.00;100955.00;6174584;28;20230;-79
2023/12/08 11:58:06;;;;;;;14.20;11.23;;;;;;;1.70;100.00;100945.63;6171344;28;20230;-76
2023/12/08 12:01:27;;;;;;;15.90;11.70;;;;;;;1.66;100.00;100942.28;6172020;28;20253;-75
2023/12/08 12:04:49;;;;;;;16.50;12.13;;;;;;;1.60;100.00;100935.50;6176961;28;20242;-75
2023/12/08 12:08:12;;;;;;;17.67;13.03;;;;;;;1.66;100.00;100936.97;6169032;28;20242;-74
2023/12/08 12:11:35;;;;;;;17.87;12.77;;;;;;;1.79;100.00;100931.88;6174630;28;20238;-78
2023/12/08 12:14:58;;;;;;;15.57;13.33;;;;;;;1.84;100.00;100927.16;6161457;28;20233;-76
2023/12/08 12:18:19;;;;;;;13.57;12.00;;;;;;;1.77;100.00;100925.78;6184730;28;20233;-76
2023/12/08 12:21:43;;;;;;;14.93;12.67;;;;;;;1.84;100.00;100935.13;6179606;28;20237;-79
2023/12/08 12:25:04;;;;;;;17.63;12.97;;;;;;;1.58;100.00;100936.50;6181803;28;20313;-77
2023/12/08 12:28:25;;;;;;;15.13;11.80;;;;;;;1.76;100.00;100922.25;6162176;28;20265;-74
2023/12/08 12:31:47;;;;;;;17.33;13.77;;;;;;;1.72;100.00;100946.41;6170144;28;20233;-74
2023/12/08 12:35:09;;;;;;;17.47;13.47;;;;;;;1.83;100.00;100947.59;6154923;28;20316;-78
2023/12/08 12:38:30;;;;;;;18.53;15.00;;;;;;;1.84;100.00;100951.94;6176492;28;20230;-78
2023/12/08 12:41:51;;;;;;;16.50;12.37;;;;;;;1.85;100.00;100945.72;6173253;28;21400;-74
2023/12/08 12:45:27;;;;;;;15.17;13.47;;;;;;;1.64;100.00;100952.13;6178278;28;20264;-79
2023/12/08 12:48:49;;;;;;;17.27;14.77;;;;;;;1.83;100.00;100936.97;6173270;28;20608;-76
2023/12/08 12:52:25;;;;;;;14.40;12.90;;;;;;;1.86;100.00;100920.84;6180297;28;20230;-81
2023/12/08 12:55:46;;;;;;;13.93;11.67;;;;;;;1.93;100.00;100916.94;6171698;28;20237;-76
2023/12/08 12:59:09;;;;;;;14.60;12.00;;;;;;;1.79;100.00;100924.78;6176937;28;20230;-82
2023/12/08 13:02:30;;;;;;;19.77;15.23;;;;;;;1.66;100.00;100928.13;6180589;28;20601;-79
2023/12/08 13:05:54;;;;;;;13.77;11.70;;;;;;;1.64;100.00;100941.50;6163447;28;21330;-79
2023/12/08 13:09:26;;;;;;;14.13;10.97;;;;;;;1.71;100.00;100965.97;6174325;28;20294;-83
2023/12/08 13:12:47;;;;;;;13.30;11.43;;;;;;;1.38;100.00;100966.69;6176975;28;20233;-77
2023/12/08 13:16:09;;;;;;;15.00;13.33;;;;;;;1.36;100.00;100962.41;6167008;28;20625;-72
2023/12/08 13:19:30;;;;;;;14.23;12.00;;;;;;;1.47;100.00;100939.69;6170309;28;20234;-73
2023/12/08 13:22:52;;;;;;;13.57;12.17;;;;;;;1.68;100.00;100928.91;6177258;28;20229;-74
2023/12/08 13:26:13;;;;;;;14.40;12.90;;;;;;;1.81;100.00;100937.97;6177275;28;20249;-76
2023/12/08 13:29:34;;;;;;;15.27;10.97;;;;;;;1.75;100.00;100956.88;6177186;28;20564;-74
2023/12/08 13:32:55;;;;;;;17.97;13.30;;;;;;;1.61;100.00;100949.59;6175526;28;20237;-75
2023/12/08 13:36:16;;;;;;;15.97;11.70;;;;;;;1.60;100.00;100963.84;6173769;28;20253;-74
2023/12/08 13:39:38;;;;;;;15.80;14.13;;;;;;;1.67;100.00;100951.13;6178278;28;20256;-78
2023/12/08 13:43:00;;;;;;;15.07;11.83;;;;;;;1.75;100.00;100959.53;6168072;28;20226;-78
2023/12/08 13:46:22;;;;;;;16.07;13.77;;;;;;;1.61;100.00;100945.16;6177852;28;20237;-76
2023/12/08 13:49:47;;;;;;;16.00;12.10;;;;;;;1.65;100.00;100943.19;6180666;28;20238;-73
2023/12/08 13:53:07;;;;;;;16.23;12.27;;;;;;;1.63;100.00;100943.28;6180348;28;20234;-72
2023/12/08 13:56:30;;;;;;;16.13;12.03;;;;;;;1.76;100.00;100946.16;6175909;28;20609;-81
2023/12/08 13:59:51;;;;;;;14.27;11.67;;;;;;;1.57;100.00;100942.72;6176323;28;20241;-76
2023/12/08 14:03:12;;;;;;;13.03;10.97;;;;;;;1.49;100.00;100952.88;6179797;28;20234;-78
2023/12/08 14:06:33;;;;;;;17.80;12.30;;;;;;;1.55;100.00;100948.13;6180653;28;20317;-77
2023/12/08 14:09:54;;;;;;;16.07;13.23;;;;;;;1.68;100.00;100945.72;6177449;28;20798;-75
2023/12/08 14:13:16;;;;;;;16.40;12.63;;;;;;;1.63;100.00;100942.41;6171497;28;20318;-77
2023/12/08 14:16:38;;;;;;;17.53;12.67;;;;;;;1.78;100.00;100941.63;6178108;28;20321;-76
2023/12/08 14:19:59;;;;;;;14.70;13.03;;;;;;;1.58;100.00;100947.13;6176614;28;20241;-77
2023/12/08 14:23:20;;;;;;;13.97;11.70;;;;;;;1.77;100.00;100942.59;6171172;28;20254;-78
2023/12/08 14:26:41;;;;;;;13.13;11.20;;;;;;;1.77;100.00;100942.59;6180702;28;20229;-76
2023/12/08 14:30:04;;;;;;;13.20;11.43;;;;;;;1.73;100.00;100929.53;6170126;28;20234;-79
2023/12/08 14:33:24;;;;;;;14.30;12.80;;;;;;;1.71;100.00;100926.94;6174201;28;20241;-76
2023/12/08 14:36:46;;;;;;;16.30;10.93;;;;;;;1.66;100.00;100942.28;6175789;28;20253;-76
2023/12/08 14:40:08;;;;;;;12.97;10.97;;;;;;;1.68;100.00;100940.41;6176318;28;20329;-78
2023/12/08 14:43:29;;;;;;;13.37;11.97;;;;;;;1.68;100.00;100943.06;6174657;28;20233;-76
2023/12/08 14:46:51;;;;;;;14.50;12.97;;;;;;;1.66;100.00;100944.94;6174846;28;20626;-77
2023/12/08 14:50:12;;;;;;;16.20;13.80;;;;;;;1.57;100.00;100948.03;6178345;28;20226;-77
2023/12/08 14:53:33;;;;;;;14.63;10.97;;;;;;;1.56;100.00;100944.53;6178203;28;20326;-77
2023/12/08 14:56:54;;;;;;;15.93;11.70;;;;;;;1.50;100.00;100944.00;6177145;28;20705;-74
2023/12/08 15:00:16;;;;;;;16.70;12.33;;;;;;;1.36;100.00;100943.81;6166067;28;20238;-74
2023/12/08 15:03:38;;;;;;;15.43;12.60;;;;;;;1.47;100.00;100952.97;6166300;28;20238;-75
2023/12/08 15:07:00;;;;;;;16.00;13.30;;;;;;;1.47;100.00;100960.94;6172700;28;20241;-74
2023/12/08 15:10:21;;;;;;;15.10;11.30;;;;;;;1.43;100.00;100961.16;6178291;28;20616;-81
2023/12/08 15:13:42;;;;;;;16.20;12.00;;;;;;;1.50;100.00;100954.63;6174498;28;20232;-76
2023/12/08 15:17:03;;;;;;;15.97;12.73;;;;;;;1.58;100.00;100966.59;6177267;28;20268;-77